sensor_id;sensor_type;location;lat;lon;timestamp;P1;durP1;ratioP1;P2;durP2;ratioP2
64609;SDS011;51019;46.090;6.350;2022-08-18T00:01:39;11.32;;;2.65;;
64609;SDS011;51019;46.090;6.350;2022-08-18T00:04:07;9.82;;;2.67;;
64609;SDS011;51019;46.090;6.350;2022-08-18T00:06:34;9.57;;;2.70;;
64609;SDS011;51019;46.090;6.350;2022-08-18T00:09:04;10.05;;;2.78;;
64609;SDS011;51019;46.090;6.350;2022-08-18T00:11:34;9.30;;;2.88;;
64609;SDS011;51019;46.090;6.350;2022-08-18T00:14:03;10.02;;;2.97;;
64609;SDS011;51019;46.090;6.350;2022-08-18T00:16:29;9.10;;;2.58;;
64609;SDS011;51019;46.090;6.350;2022-08-18T00:18:56;9.48;;;2.60;;
64609;SDS011;51019;46.090;6.350;2022-08-18T00:21:24;8.82;;;2.88;;
64609;SDS011;51019;46.090;6.350;2022-08-18T00:23:52;9.00;;;2.63;;
64609;SDS011;51019;46.090;6.350;2022-08-18T00:26:20;10.70;;;3.00;;
64609;SDS011;51019;46.090;6.350;2022-08-18T00:28:47;9.88;;;3.30;;
64609;SDS011;51019;46.090;6.350;2022-08-18T00:31:14;12.65;;;3.53;;
64609;SDS011;51019;46.090;6.350;2022-08-18T00:33:41;10.20;;;2.90;;
64609;SDS011;51019;46.090;6.350;2022-08-18T00:36:08;10.30;;;2.90;;
64609;SDS011;51019;46.090;6.350;2022-08-18T00:38:35;9.75;;;2.90;;
64609;SDS011;51019;46.090;6.350;2022-08-18T00:41:03;12.90;;;3.25;;
64609;SDS011;51019;46.090;6.350;2022-08-18T00:43:33;9.45;;;2.95;;
64609;SDS011;51019;46.090;6.350;2022-08-18T00:46:06;8.65;;;2.67;;
64609;SDS011;51019;46.090;6.350;2022-08-18T00:48:34;10.90;;;2.92;;
64609;SDS011;51019;46.090;6.350;2022-08-18T00:51:02;8.40;;;2.58;;
64609;SDS011;51019;46.090;6.350;2022-08-18T00:53:34;14.50;;;3.22;;
64609;SDS011;51019;46.090;6.350;2022-08-18T00:56:06;9.57;;;2.88;;
64609;SDS011;51019;46.090;6.350;2022-08-18T00:58:39;8.98;;;2.50;;
64609;SDS011;51019;46.090;6.350;2022-08-18T01:01:10;9.02;;;2.63;;
64609;SDS011;51019;46.090;6.350;2022-08-18T01:03:39;11.52;;;2.90;;
64609;SDS011;51019;46.090;6.350;2022-08-18T01:06:10;8.98;;;2.58;;
64609;SDS011;51019;46.090;6.350;2022-08-18T01:08:43;9.68;;;2.65;;
64609;SDS011;51019;46.090;6.350;2022-08-18T01:11:09;10.10;;;3.28;;
64609;SDS011;51019;46.090;6.350;2022-08-18T01:13:38;8.40;;;2.25;;
64609;SDS011;51019;46.090;6.350;2022-08-18T01:16:06;9.18;;;2.20;;
64609;SDS011;51019;46.090;6.350;2022-08-18T01:18:47;8.68;;;2.60;;
64609;SDS011;51019;46.090;6.350;2022-08-18T01:21:31;8.52;;;2.55;;
64609;SDS011;51019;46.090;6.350;2022-08-18T01:24:18;10.73;;;2.50;;
64609;SDS011;51019;46.090;6.350;2022-08-18T01:27:06;10.77;;;2.97;;
64609;SDS011;51019;46.090;6.350;2022-08-18T01:29:34;10.35;;;3.10;;
64609;SDS011;51019;46.090;6.350;2022-08-18T01:32:01;10.73;;;3.03;;
64609;SDS011;51019;46.090;6.350;2022-08-18T01:34:28;8.20;;;2.42;;
64609;SDS011;51019;46.090;6.350;2022-08-18T01:36:55;9.00;;;2.60;;
64609;SDS011;51019;46.090;6.350;2022-08-18T01:39:24;9.75;;;2.75;;
64609;SDS011;51019;46.090;6.350;2022-08-18T01:41:52;11.35;;;2.90;;
64609;SDS011;51019;46.090;6.350;2022-08-18T01:44:18;9.98;;;3.15;;
64609;SDS011;51019;46.090;6.350;2022-08-18T01:46:45;9.07;;;2.85;;
64609;SDS011;51019;46.090;6.350;2022-08-18T01:49:12;9.73;;;3.20;;
64609;SDS011;51019;46.090;6.350;2022-08-18T01:51:40;11.20;;;3.15;;
64609;SDS011;51019;46.090;6.350;2022-08-18T01:54:08;10.18;;;3.20;;
64609;SDS011;51019;46.090;6.350;2022-08-18T01:56:38;9.68;;;3.30;;
64609;SDS011;51019;46.090;6.350;2022-08-18T01:59:07;11.20;;;3.08;;
64609;SDS011;51019;46.090;6.350;2022-08-18T02:01:39;12.07;;;3.22;;
64609;SDS011;51019;46.090;6.350;2022-08-18T02:04:08;9.98;;;3.20;;
64609;SDS011;51019;46.090;6.350;2022-08-18T02:06:36;12.90;;;3.05;;
64609;SDS011;51019;46.090;6.350;2022-08-18T02:09:04;12.07;;;3.72;;
64609;SDS011;51019;46.090;6.350;2022-08-18T02:11:31;10.90;;;3.50;;
64609;SDS011;51019;46.090;6.350;2022-08-18T02:14:00;11.32;;;3.15;;
64609;SDS011;51019;46.090;6.350;2022-08-18T02:16:27;11.57;;;3.55;;
64609;SDS011;51019;46.090;6.350;2022-08-18T02:18:54;12.65;;;3.72;;
64609;SDS011;51019;46.090;6.350;2022-08-18T02:21:21;11.00;;;3.22;;
64609;SDS011;51019;46.090;6.350;2022-08-18T02:23:48;10.60;;;3.65;;
64609;SDS011;51019;46.090;6.350;2022-08-18T02:26:16;12.18;;;3.35;;
64609;SDS011;51019;46.090;6.350;2022-08-18T02:28:43;11.23;;;3.28;;
64609;SDS011;51019;46.090;6.350;2022-08-18T02:31:13;10.63;;;3.28;;
64609;SDS011;51019;46.090;6.350;2022-08-18T02:33:43;10.68;;;3.17;;
64609;SDS011;51019;46.090;6.350;2022-08-18T02:36:11;11.15;;;3.60;;
64609;SDS011;51019;46.090;6.350;2022-08-18T02:38:38;12.55;;;3.70;;
64609;SDS011;51019;46.090;6.350;2022-08-18T02:41:07;10.55;;;3.60;;
64609;SDS011;51019;46.090;6.350;2022-08-18T02:43:36;10.77;;;3.88;;
64609;SDS011;51019;46.090;6.350;2022-08-18T02:46:04;11.07;;;3.38;;
64609;SDS011;51019;46.090;6.350;2022-08-18T02:48:33;10.75;;;3.65;;
64609;SDS011;51019;46.090;6.350;2022-08-18T02:51:01;11.15;;;3.40;;
64609;SDS011;51019;46.090;6.350;2022-08-18T02:53:29;10.93;;;3.50;;
64609;SDS011;51019;46.090;6.350;2022-08-18T02:56:03;10.90;;;3.70;;
64609;SDS011;51019;46.090;6.350;2022-08-18T02:58:38;11.10;;;3.85;;
64609;SDS011;51019;46.090;6.350;2022-08-18T03:01:05;10.88;;;3.80;;
64609;SDS011;51019;46.090;6.350;2022-08-18T03:03:34;10.63;;;3.45;;
64609;SDS011;51019;46.090;6.350;2022-08-18T03:06:01;11.63;;;3.72;;
64609;SDS011;51019;46.090;6.350;2022-08-18T03:08:28;11.75;;;3.70;;
64609;SDS011;51019;46.090;6.350;2022-08-18T03:10:56;10.10;;;3.40;;
64609;SDS011;51019;46.090;6.350;2022-08-18T03:13:23;9.55;;;3.55;;
64609;SDS011;51019;46.090;6.350;2022-08-18T03:15:51;10.90;;;3.83;;
64609;SDS011;51019;46.090;6.350;2022-08-18T03:18:18;12.05;;;3.92;;
64609;SDS011;51019;46.090;6.350;2022-08-18T03:20:48;11.77;;;3.95;;
64609;SDS011;51019;46.090;6.350;2022-08-18T03:23:15;11.80;;;3.95;;
64609;SDS011;51019;46.090;6.350;2022-08-18T03:25:43;10.85;;;4.20;;
64609;SDS011;51019;46.090;6.350;2022-08-18T03:28:11;11.18;;;3.92;;
64609;SDS011;51019;46.090;6.350;2022-08-18T03:30:38;12.70;;;4.10;;
64609;SDS011;51019;46.090;6.350;2022-08-18T03:33:06;11.75;;;3.80;;
64609;SDS011;51019;46.090;6.350;2022-08-18T03:35:33;12.27;;;3.75;;
64609;SDS011;51019;46.090;6.350;2022-08-18T03:38:03;11.00;;;3.60;;
64609;SDS011;51019;46.090;6.350;2022-08-18T03:40:30;11.40;;;3.50;;
64609;SDS011;51019;46.090;6.350;2022-08-18T03:43:00;11.95;;;4.13;;
64609;SDS011;51019;46.090;6.350;2022-08-18T03:45:31;11.35;;;4.05;;
64609;SDS011;51019;46.090;6.350;2022-08-18T03:47:58;11.32;;;3.60;;
64609;SDS011;51019;46.090;6.350;2022-08-18T03:50:26;11.45;;;3.63;;
64609;SDS011;51019;46.090;6.350;2022-08-18T03:52:54;11.38;;;3.90;;
64609;SDS011;51019;46.090;6.350;2022-08-18T03:55:25;15.13;;;4.38;;
64609;SDS011;51019;46.090;6.350;2022-08-18T03:57:56;11.77;;;4.07;;
64609;SDS011;51019;46.090;6.350;2022-08-18T04:00:27;11.70;;;4.20;;
64609;SDS011;51019;46.090;6.350;2022-08-18T04:02:54;11.95;;;3.72;;
64609;SDS011;51019;46.090;6.350;2022-08-18T04:05:21;14.05;;;4.53;;
64609;SDS011;51019;46.090;6.350;2022-08-18T04:07:48;11.98;;;3.97;;
64609;SDS011;51019;46.090;6.350;2022-08-18T04:10:15;10.95;;;3.95;;
64609;SDS011;51019;46.090;6.350;2022-08-18T04:12:45;11.82;;;4.18;;
64609;SDS011;51019;46.090;6.350;2022-08-18T04:15:12;15.27;;;3.80;;
64609;SDS011;51019;46.090;6.350;2022-08-18T04:17:39;11.77;;;4.07;;
64609;SDS011;51019;46.090;6.350;2022-08-18T04:20:06;12.10;;;4.05;;
64609;SDS011;51019;46.090;6.350;2022-08-18T04:22:34;12.40;;;4.30;;
64609;SDS011;51019;46.090;6.350;2022-08-18T04:25:01;11.77;;;4.00;;
64609;SDS011;51019;46.090;6.350;2022-08-18T04:27:30;13.73;;;4.47;;
64609;SDS011;51019;46.090;6.350;2022-08-18T04:29:58;12.50;;;4.32;;
64609;SDS011;51019;46.090;6.350;2022-08-18T04:32:25;13.90;;;4.35;;
64609;SDS011;51019;46.090;6.350;2022-08-18T04:34:52;13.15;;;4.22;;
64609;SDS011;51019;46.090;6.350;2022-08-18T04:37:19;12.63;;;4.03;;
64609;SDS011;51019;46.090;6.350;2022-08-18T04:39:46;13.23;;;4.22;;
64609;SDS011;51019;46.090;6.350;2022-08-18T04:42:13;12.60;;;4.53;;
64609;SDS011;51019;46.090;6.350;2022-08-18T04:44:40;12.70;;;4.45;;
64609;SDS011;51019;46.090;6.350;2022-08-18T04:47:09;14.15;;;3.85;;
64609;SDS011;51019;46.090;6.350;2022-08-18T04:49:37;12.02;;;4.05;;
64609;SDS011;51019;46.090;6.350;2022-08-18T04:52:04;16.92;;;4.18;;
64609;SDS011;51019;46.090;6.350;2022-08-18T04:54:50;12.85;;;3.95;;
64609;SDS011;51019;46.090;6.350;2022-08-18T04:57:17;12.27;;;4.05;;
64609;SDS011;51019;46.090;6.350;2022-08-18T04:59:48;11.07;;;3.90;;
64609;SDS011;51019;46.090;6.350;2022-08-18T05:02:19;13.25;;;4.47;;
64609;SDS011;51019;46.090;6.350;2022-08-18T05:04:47;12.35;;;4.47;;
64609;SDS011;51019;46.090;6.350;2022-08-18T05:07:16;12.23;;;4.93;;
64609;SDS011;51019;46.090;6.350;2022-08-18T05:09:46;12.88;;;4.80;;
64609;SDS011;51019;46.090;6.350;2022-08-18T05:12:14;16.52;;;5.00;;
64609;SDS011;51019;46.090;6.350;2022-08-18T05:14:42;14.90;;;4.60;;
64609;SDS011;51019;46.090;6.350;2022-08-18T05:17:10;12.95;;;5.15;;
64609;SDS011;51019;46.090;6.350;2022-08-18T05:19:40;13.25;;;4.90;;
64609;SDS011;51019;46.090;6.350;2022-08-18T05:22:10;11.75;;;4.60;;
64609;SDS011;51019;46.090;6.350;2022-08-18T05:24:41;13.10;;;4.77;;
64609;SDS011;51019;46.090;6.350;2022-08-18T05:27:08;12.90;;;5.20;;
64609;SDS011;51019;46.090;6.350;2022-08-18T05:29:37;12.70;;;5.15;;
64609;SDS011;51019;46.090;6.350;2022-08-18T05:32:04;14.45;;;5.28;;
64609;SDS011;51019;46.090;6.350;2022-08-18T05:34:32;13.10;;;5.28;;
64609;SDS011;51019;46.090;6.350;2022-08-18T05:37:02;16.63;;;5.85;;
64609;SDS011;51019;46.090;6.350;2022-08-18T05:39:44;13.40;;;5.05;;
64609;SDS011;51019;46.090;6.350;2022-08-18T05:42:19;14.35;;;4.78;;
64609;SDS011;51019;46.090;6.350;2022-08-18T05:44:50;13.73;;;5.05;;
64609;SDS011;51019;46.090;6.350;2022-08-18T05:47:25;13.10;;;5.50;;
64609;SDS011;51019;46.090;6.350;2022-08-18T05:49:55;17.48;;;4.93;;
64609;SDS011;51019;46.090;6.350;2022-08-18T05:55:00;13.35;;;5.45;;
64609;SDS011;51019;46.090;6.350;2022-08-18T05:57:48;12.20;;;4.85;;
64609;SDS011;51019;46.090;6.350;2022-08-18T06:00:18;13.48;;;5.05;;
64609;SDS011;51019;46.090;6.350;2022-08-18T06:02:49;14.32;;;4.63;;
64609;SDS011;51019;46.090;6.350;2022-08-18T06:05:23;13.70;;;5.30;;
64609;SDS011;51019;46.090;6.350;2022-08-18T06:07:56;11.65;;;4.45;;
64609;SDS011;51019;46.090;6.350;2022-08-18T06:10:25;12.05;;;4.45;;
64609;SDS011;51019;46.090;6.350;2022-08-18T06:12:53;12.85;;;4.65;;
64609;SDS011;51019;46.090;6.350;2022-08-18T06:15:24;12.73;;;4.50;;
64609;SDS011;51019;46.090;6.350;2022-08-18T06:18:10;16.48;;;4.82;;
64609;SDS011;51019;46.090;6.350;2022-08-18T06:20:56;11.82;;;4.63;;
64609;SDS011;51019;46.090;6.350;2022-08-18T06:23:37;12.60;;;4.75;;
64609;SDS011;51019;46.090;6.350;2022-08-18T06:26:09;12.50;;;4.28;;
64609;SDS011;51019;46.090;6.350;2022-08-18T06:28:53;13.65;;;5.35;;
64609;SDS011;51019;46.090;6.350;2022-08-18T06:31:29;11.93;;;4.63;;
64609;SDS011;51019;46.090;6.350;2022-08-18T06:34:11;14.68;;;5.82;;
64609;SDS011;51019;46.090;6.350;2022-08-18T06:36:50;12.15;;;4.22;;
64609;SDS011;51019;46.090;6.350;2022-08-18T06:39:23;10.93;;;3.85;;
64609;SDS011;51019;46.090;6.350;2022-08-18T06:41:57;12.35;;;4.05;;
64609;SDS011;51019;46.090;6.350;2022-08-18T06:44:25;12.80;;;4.13;;
64609;SDS011;51019;46.090;6.350;2022-08-18T06:46:58;10.88;;;3.80;;
64609;SDS011;51019;46.090;6.350;2022-08-18T06:49:38;12.55;;;3.70;;
64609;SDS011;51019;46.090;6.350;2022-08-18T06:52:17;12.38;;;3.60;;
64609;SDS011;51019;46.090;6.350;2022-08-18T06:54:53;12.73;;;4.53;;
64609;SDS011;51019;46.090;6.350;2022-08-18T06:57:22;10.48;;;3.65;;
64609;SDS011;51019;46.090;6.350;2022-08-18T06:59:58;11.52;;;3.97;;
64609;SDS011;51019;46.090;6.350;2022-08-18T07:02:35;11.70;;;4.38;;
64609;SDS011;51019;46.090;6.350;2022-08-18T07:05:08;11.40;;;3.95;;
64609;SDS011;51019;46.090;6.350;2022-08-18T07:07:43;11.45;;;4.45;;
64609;SDS011;51019;46.090;6.350;2022-08-18T07:13:04;12.35;;;4.40;;
64609;SDS011;51019;46.090;6.350;2022-08-18T07:15:33;11.40;;;4.05;;
64609;SDS011;51019;46.090;6.350;2022-08-18T07:18:02;12.82;;;4.65;;
64609;SDS011;51019;46.090;6.350;2022-08-18T07:20:31;12.13;;;4.50;;
64609;SDS011;51019;46.090;6.350;2022-08-18T07:23:08;12.07;;;4.65;;
64609;SDS011;51019;46.090;6.350;2022-08-18T07:25:47;14.18;;;5.10;;
64609;SDS011;51019;46.090;6.350;2022-08-18T07:28:26;12.57;;;4.85;;
64609;SDS011;51019;46.090;6.350;2022-08-18T07:31:05;12.07;;;4.03;;
64609;SDS011;51019;46.090;6.350;2022-08-18T07:33:46;11.35;;;4.18;;
64609;SDS011;51019;46.090;6.350;2022-08-18T07:36:20;10.98;;;4.20;;
64609;SDS011;51019;46.090;6.350;2022-08-18T07:38:53;11.20;;;4.03;;
64609;SDS011;51019;46.090;6.350;2022-08-18T07:41:25;12.15;;;3.97;;
64609;SDS011;51019;46.090;6.350;2022-08-18T07:44:04;14.30;;;4.75;;
64609;SDS011;51019;46.090;6.350;2022-08-18T07:46:37;13.13;;;4.47;;
64609;SDS011;51019;46.090;6.350;2022-08-18T07:49:11;11.75;;;4.25;;
64609;SDS011;51019;46.090;6.350;2022-08-18T07:51:44;12.23;;;3.90;;
64609;SDS011;51019;46.090;6.350;2022-08-18T07:54:16;12.00;;;4.30;;
64609;SDS011;51019;46.090;6.350;2022-08-18T07:56:54;10.80;;;3.67;;
64609;SDS011;51019;46.090;6.350;2022-08-18T07:59:30;11.48;;;4.15;;
64609;SDS011;51019;46.090;6.350;2022-08-18T08:02:09;11.13;;;4.05;;
64609;SDS011;51019;46.090;6.350;2022-08-18T08:04:51;10.50;;;3.70;;
64609;SDS011;51019;46.090;6.350;2022-08-18T08:07:28;10.68;;;3.47;;
64609;SDS011;51019;46.090;6.350;2022-08-18T08:10:01;11.88;;;3.90;;
64609;SDS011;51019;46.090;6.350;2022-08-18T08:12:41;11.05;;;4.03;;
64609;SDS011;51019;46.090;6.350;2022-08-18T08:15:15;10.27;;;3.53;;
64609;SDS011;51019;46.090;6.350;2022-08-18T08:17:51;10.85;;;3.47;;
64609;SDS011;51019;46.090;6.350;2022-08-18T08:20:28;11.07;;;3.95;;
64609;SDS011;51019;46.090;6.350;2022-08-18T08:23:08;12.52;;;4.05;;
64609;SDS011;51019;46.090;6.350;2022-08-18T08:25:47;11.40;;;4.30;;
64609;SDS011;51019;46.090;6.350;2022-08-18T08:28:26;10.68;;;3.83;;
64609;SDS011;51019;46.090;6.350;2022-08-18T08:31:02;10.88;;;3.78;;
64609;SDS011;51019;46.090;6.350;2022-08-18T08:33:37;12.68;;;4.25;;
64609;SDS011;51019;46.090;6.350;2022-08-18T08:36:11;11.57;;;3.80;;
64609;SDS011;51019;46.090;6.350;2022-08-18T08:38:43;11.85;;;4.40;;
64609;SDS011;51019;46.090;6.350;2022-08-18T08:41:14;11.02;;;4.03;;
64609;SDS011;51019;46.090;6.350;2022-08-18T08:43:48;11.20;;;4.15;;
64609;SDS011;51019;46.090;6.350;2022-08-18T08:46:20;11.80;;;3.75;;
64609;SDS011;51019;46.090;6.350;2022-08-18T08:48:51;12.27;;;3.58;;
64609;SDS011;51019;46.090;6.350;2022-08-18T08:51:29;10.73;;;4.03;;
64609;SDS011;51019;46.090;6.350;2022-08-18T08:54:03;11.40;;;3.35;;
64609;SDS011;51019;46.090;6.350;2022-08-18T08:56:39;9.05;;;3.40;;
64609;SDS011;51019;46.090;6.350;2022-08-18T08:59:12;9.55;;;3.47;;
64609;SDS011;51019;46.090;6.350;2022-08-18T09:01:44;11.68;;;3.92;;
64609;SDS011;51019;46.090;6.350;2022-08-18T09:04:21;12.45;;;3.60;;
64609;SDS011;51019;46.090;6.350;2022-08-18T09:07:05;11.32;;;3.53;;
64609;SDS011;51019;46.090;6.350;2022-08-18T09:12:39;11.65;;;3.65;;
64609;SDS011;51019;46.090;6.350;2022-08-18T09:15:27;10.75;;;3.65;;
64609;SDS011;51019;46.090;6.350;2022-08-18T09:21:07;9.80;;;3.50;;
64609;SDS011;51019;46.090;6.350;2022-08-18T09:23:51;9.98;;;3.60;;
64609;SDS011;51019;46.090;6.350;2022-08-18T09:26:25;11.10;;;3.97;;
64609;SDS011;51019;46.090;6.350;2022-08-18T09:29:12;11.73;;;3.60;;
64609;SDS011;51019;46.090;6.350;2022-08-18T09:31:44;9.63;;;3.20;;
64609;SDS011;51019;46.090;6.350;2022-08-18T09:34:18;10.20;;;3.40;;
64609;SDS011;51019;46.090;6.350;2022-08-18T09:37:10;10.73;;;3.85;;
64609;SDS011;51019;46.090;6.350;2022-08-18T09:39:42;11.23;;;4.05;;
64609;SDS011;51019;46.090;6.350;2022-08-18T09:42:36;10.35;;;3.72;;
64609;SDS011;51019;46.090;6.350;2022-08-18T09:45:09;10.48;;;3.50;;
64609;SDS011;51019;46.090;6.350;2022-08-18T09:48:28;9.65;;;3.35;;
64609;SDS011;51019;46.090;6.350;2022-08-18T09:59:52;12.48;;;4.20;;
64609;SDS011;51019;46.090;6.350;2022-08-18T10:05:37;11.88;;;4.10;;
64609;SDS011;51019;46.090;6.350;2022-08-18T10:11:28;11.80;;;4.22;;
64609;SDS011;51019;46.090;6.350;2022-08-18T10:14:09;12.25;;;4.50;;
64609;SDS011;51019;46.090;6.350;2022-08-18T10:16:53;10.32;;;4.00;;
64609;SDS011;51019;46.090;6.350;2022-08-18T10:19:27;13.20;;;4.28;;
64609;SDS011;51019;46.090;6.350;2022-08-18T10:22:05;13.38;;;4.47;;
64609;SDS011;51019;46.090;6.350;2022-08-18T10:24:35;10.88;;;4.30;;
64609;SDS011;51019;46.090;6.350;2022-08-18T10:27:11;10.88;;;4.20;;
64609;SDS011;51019;46.090;6.350;2022-08-18T10:32:37;10.48;;;3.97;;
64609;SDS011;51019;46.090;6.350;2022-08-18T10:41:18;10.90;;;3.78;;
64609;SDS011;51019;46.090;6.350;2022-08-18T10:43:49;12.05;;;4.10;;
64609;SDS011;51019;46.090;6.350;2022-08-18T10:46:20;10.00;;;3.70;;
64609;SDS011;51019;46.090;6.350;2022-08-18T10:48:59;12.45;;;3.55;;
64609;SDS011;51019;46.090;6.350;2022-08-18T10:51:44;9.98;;;4.18;;
64609;SDS011;51019;46.090;6.350;2022-08-18T10:54:25;10.85;;;4.15;;
64609;SDS011;51019;46.090;6.350;2022-08-18T10:57:05;10.38;;;3.47;;
64609;SDS011;51019;46.090;6.350;2022-08-18T10:59:36;10.32;;;4.00;;
64609;SDS011;51019;46.090;6.350;2022-08-18T11:02:12;10.13;;;3.45;;
64609;SDS011;51019;46.090;6.350;2022-08-18T11:04:55;11.40;;;3.80;;
64609;SDS011;51019;46.090;6.350;2022-08-18T11:07:24;10.77;;;3.90;;
64609;SDS011;51019;46.090;6.350;2022-08-18T11:09:55;10.60;;;3.80;;
64609;SDS011;51019;46.090;6.350;2022-08-18T11:12:36;11.10;;;3.80;;
64609;SDS011;51019;46.090;6.350;2022-08-18T11:15:15;12.43;;;3.60;;
64609;SDS011;51019;46.090;6.350;2022-08-18T11:17:53;11.70;;;3.92;;
64609;SDS011;51019;46.090;6.350;2022-08-18T11:20:32;9.93;;;3.42;;
64609;SDS011;51019;46.090;6.350;2022-08-18T11:23:00;9.80;;;3.53;;
64609;SDS011;51019;46.090;6.350;2022-08-18T11:25:32;11.07;;;3.63;;
64609;SDS011;51019;46.090;6.350;2022-08-18T11:28:01;10.45;;;3.20;;
64609;SDS011;51019;46.090;6.350;2022-08-18T11:30:30;10.02;;;3.30;;
64609;SDS011;51019;46.090;6.350;2022-08-18T11:33:01;10.18;;;3.67;;
64609;SDS011;51019;46.090;6.350;2022-08-18T11:35:29;11.48;;;4.07;;
64609;SDS011;51019;46.090;6.350;2022-08-18T11:37:58;9.85;;;3.42;;
64609;SDS011;51019;46.090;6.350;2022-08-18T11:40:34;10.10;;;3.40;;
64609;SDS011;51019;46.090;6.350;2022-08-18T11:43:04;10.63;;;3.83;;
64609;SDS011;51019;46.090;6.350;2022-08-18T11:45:47;10.13;;;3.65;;
64609;SDS011;51019;46.090;6.350;2022-08-18T11:48:19;11.23;;;3.95;;
64609;SDS011;51019;46.090;6.350;2022-08-18T11:50:57;10.43;;;3.65;;
64609;SDS011;51019;46.090;6.350;2022-08-18T11:53:40;9.48;;;3.35;;
64609;SDS011;51019;46.090;6.350;2022-08-18T11:56:23;9.93;;;3.45;;
64609;SDS011;51019;46.090;6.350;2022-08-18T11:58:53;11.57;;;3.97;;
64609;SDS011;51019;46.090;6.350;2022-08-18T12:01:35;10.73;;;3.85;;
64609;SDS011;51019;46.090;6.350;2022-08-18T12:06:58;12.80;;;4.05;;
64609;SDS011;51019;46.090;6.350;2022-08-18T12:09:33;11.95;;;3.85;;
64609;SDS011;51019;46.090;6.350;2022-08-18T12:12:06;12.43;;;4.00;;
64609;SDS011;51019;46.090;6.350;2022-08-18T12:14:52;12.05;;;4.00;;
64609;SDS011;51019;46.090;6.350;2022-08-18T12:17:21;12.20;;;3.83;;
64609;SDS011;51019;46.090;6.350;2022-08-18T12:19:48;10.68;;;3.85;;
64609;SDS011;51019;46.090;6.350;2022-08-18T12:22:17;11.10;;;3.53;;
64609;SDS011;51019;46.090;6.350;2022-08-18T12:24:45;11.55;;;3.72;;
64609;SDS011;51019;46.090;6.350;2022-08-18T12:27:15;11.55;;;3.75;;
64609;SDS011;51019;46.090;6.350;2022-08-18T12:29:43;11.15;;;3.70;;
64609;SDS011;51019;46.090;6.350;2022-08-18T12:32:12;10.25;;;3.45;;
64609;SDS011;51019;46.090;6.350;2022-08-18T12:34:40;11.15;;;3.67;;
64609;SDS011;51019;46.090;6.350;2022-08-18T12:37:07;11.05;;;4.18;;
64609;SDS011;51019;46.090;6.350;2022-08-18T12:39:35;12.80;;;4.05;;
64609;SDS011;51019;46.090;6.350;2022-08-18T12:42:03;11.25;;;3.85;;
64609;SDS011;51019;46.090;6.350;2022-08-18T12:44:32;12.80;;;3.95;;
64609;SDS011;51019;46.090;6.350;2022-08-18T12:46:59;12.27;;;3.70;;
64609;SDS011;51019;46.090;6.350;2022-08-18T12:49:27;10.32;;;3.72;;
64609;SDS011;51019;46.090;6.350;2022-08-18T12:51:55;10.25;;;3.90;;
64609;SDS011;51019;46.090;6.350;2022-08-18T12:54:22;10.50;;;3.63;;
64609;SDS011;51019;46.090;6.350;2022-08-18T12:56:50;9.95;;;3.63;;
64609;SDS011;51019;46.090;6.350;2022-08-18T12:59:20;9.32;;;3.50;;
64609;SDS011;51019;46.090;6.350;2022-08-18T13:01:49;11.07;;;3.85;;
64609;SDS011;51019;46.090;6.350;2022-08-18T13:04:16;14.50;;;4.25;;
64609;SDS011;51019;46.090;6.350;2022-08-18T13:06:44;10.63;;;4.00;;
64609;SDS011;51019;46.090;6.350;2022-08-18T13:09:13;10.93;;;3.92;;
64609;SDS011;51019;46.090;6.350;2022-08-18T13:11:40;11.18;;;4.10;;
64609;SDS011;51019;46.090;6.350;2022-08-18T13:14:07;10.45;;;3.90;;
64609;SDS011;51019;46.090;6.350;2022-08-18T13:16:35;11.20;;;3.58;;
64609;SDS011;51019;46.090;6.350;2022-08-18T13:19:07;10.45;;;3.83;;
64609;SDS011;51019;46.090;6.350;2022-08-18T13:21:34;10.68;;;3.80;;
64609;SDS011;51019;46.090;6.350;2022-08-18T13:24:02;9.55;;;3.40;;
64609;SDS011;51019;46.090;6.350;2022-08-18T13:26:30;10.07;;;3.50;;
64609;SDS011;51019;46.090;6.350;2022-08-18T13:29:00;10.38;;;3.47;;
64609;SDS011;51019;46.090;6.350;2022-08-18T13:31:28;13.05;;;4.35;;
64609;SDS011;51019;46.090;6.350;2022-08-18T13:33:56;10.20;;;3.60;;
64609;SDS011;51019;46.090;6.350;2022-08-18T13:36:25;9.55;;;3.55;;
64609;SDS011;51019;46.090;6.350;2022-08-18T13:39:08;12.77;;;3.90;;
64609;SDS011;51019;46.090;6.350;2022-08-18T13:41:35;13.02;;;3.80;;
64609;SDS011;51019;46.090;6.350;2022-08-18T13:44:03;10.18;;;3.70;;
64609;SDS011;51019;46.090;6.350;2022-08-18T13:46:30;10.38;;;3.60;;
64609;SDS011;51019;46.090;6.350;2022-08-18T13:48:57;10.00;;;3.50;;
64609;SDS011;51019;46.090;6.350;2022-08-18T13:51:28;10.63;;;3.80;;
64609;SDS011;51019;46.090;6.350;2022-08-18T13:53:55;11.82;;;4.10;;
64609;SDS011;51019;46.090;6.350;2022-08-18T13:56:22;9.45;;;3.40;;
64609;SDS011;51019;46.090;6.350;2022-08-18T13:58:49;10.90;;;3.70;;
64609;SDS011;51019;46.090;6.350;2022-08-18T14:01:16;11.75;;;3.75;;
64609;SDS011;51019;46.090;6.350;2022-08-18T14:03:43;9.90;;;3.50;;
64609;SDS011;51019;46.090;6.350;2022-08-18T14:06:11;10.38;;;3.80;;
64609;SDS011;51019;46.090;6.350;2022-08-18T14:08:39;10.60;;;3.67;;
64609;SDS011;51019;46.090;6.350;2022-08-18T14:11:06;11.38;;;3.78;;
64609;SDS011;51019;46.090;6.350;2022-08-18T14:13:34;9.10;;;3.00;;
64609;SDS011;51019;46.090;6.350;2022-08-18T14:16:02;10.63;;;3.75;;
64609;SDS011;51019;46.090;6.350;2022-08-18T14:18:29;10.50;;;3.78;;
64609;SDS011;51019;46.090;6.350;2022-08-18T14:20:56;10.48;;;3.92;;
64609;SDS011;51019;46.090;6.350;2022-08-18T14:23:43;11.55;;;3.90;;
64609;SDS011;51019;46.090;6.350;2022-08-18T14:26:25;10.88;;;3.80;;
64609;SDS011;51019;46.090;6.350;2022-08-18T14:29:09;11.68;;;4.32;;
64609;SDS011;51019;46.090;6.350;2022-08-18T14:31:36;10.88;;;4.05;;
64609;SDS011;51019;46.090;6.350;2022-08-18T14:34:03;11.20;;;3.90;;
64609;SDS011;51019;46.090;6.350;2022-08-18T14:36:30;11.77;;;3.78;;
64609;SDS011;51019;46.090;6.350;2022-08-18T14:38:59;11.15;;;3.70;;
64609;SDS011;51019;46.090;6.350;2022-08-18T14:41:27;9.93;;;3.70;;
64609;SDS011;51019;46.090;6.350;2022-08-18T14:43:54;10.93;;;4.03;;
64609;SDS011;51019;46.090;6.350;2022-08-18T14:46:22;11.05;;;3.97;;
64609;SDS011;51019;46.090;6.350;2022-08-18T14:48:50;10.93;;;3.88;;
64609;SDS011;51019;46.090;6.350;2022-08-18T14:51:17;10.07;;;3.55;;
64609;SDS011;51019;46.090;6.350;2022-08-18T14:53:44;11.60;;;3.95;;
64609;SDS011;51019;46.090;6.350;2022-08-18T14:56:12;10.52;;;3.70;;
64609;SDS011;51019;46.090;6.350;2022-08-18T14:58:39;11.50;;;4.15;;
64609;SDS011;51019;46.090;6.350;2022-08-18T15:01:07;10.13;;;4.15;;
64609;SDS011;51019;46.090;6.350;2022-08-18T15:03:37;10.32;;;3.67;;
64609;SDS011;51019;46.090;6.350;2022-08-18T15:06:06;12.30;;;3.90;;
64609;SDS011;51019;46.090;6.350;2022-08-18T15:08:35;10.07;;;3.63;;
64609;SDS011;51019;46.090;6.350;2022-08-18T15:11:04;12.23;;;3.92;;
64609;SDS011;51019;46.090;6.350;2022-08-18T15:13:32;10.07;;;3.97;;
64609;SDS011;51019;46.090;6.350;2022-08-18T15:16:00;10.48;;;4.05;;
64609;SDS011;51019;46.090;6.350;2022-08-18T15:18:27;10.43;;;3.53;;
64609;SDS011;51019;46.090;6.350;2022-08-18T15:20:54;11.73;;;3.83;;
64609;SDS011;51019;46.090;6.350;2022-08-18T15:23:39;10.32;;;3.63;;
64609;SDS011;51019;46.090;6.350;2022-08-18T15:26:23;11.48;;;3.70;;
64609;SDS011;51019;46.090;6.350;2022-08-18T15:28:53;11.43;;;4.32;;
64609;SDS011;51019;46.090;6.350;2022-08-18T15:31:20;9.80;;;3.88;;
64609;SDS011;51019;46.090;6.350;2022-08-18T15:33:48;11.00;;;3.70;;
64609;SDS011;51019;46.090;6.350;2022-08-18T15:36:15;10.82;;;4.20;;
64609;SDS011;51019;46.090;6.350;2022-08-18T15:38:45;11.57;;;4.25;;
64609;SDS011;51019;46.090;6.350;2022-08-18T15:41:25;10.90;;;4.15;;